B7761 ZULS-VQPR
Flight info
| Callsign | B7761 |
|---|---|
| Flight time | N/A |
| Altitude | 40100 |
| Route | DM DCT UGOVA DCT BT/N0459F280 Y1 PRO |
| Aircraft | CL60/M-SBDE1E2E3FGHIJ1J4J5J7M3RWXYZ/LB1V1D1 |
Departure
| Time | 2026-04-14 16:05 |
|---|---|
| Airport | Lhasa Gonggar International Airport (ZULS) |
Arrival
| Time | N/A |
|---|---|
| Airport | Paro International Airport (VQPR) |
| Time | Latitude | Longitude | Altitude | Speed | Heading |
|---|---|---|---|---|---|
| 2026-04-14 15:32 | 29.29424 | 90.88683 | 11884 ft | 0 kts | 179° |
| 2026-04-14 16:01 | 29.29409 | 90.88683 | 11879 ft | 5 kts | 180° |
| 2026-04-14 16:01 | 29.29429 | 90.88672 | 11879 ft | 8 kts | 8° |
| 2026-04-14 16:01 | 29.29513 | 90.88684 | 11880 ft | 14 kts | 11° |
| 2026-04-14 16:02 | 29.29559 | 90.88796 | 11879 ft | 16 kts | 113° |
| 2026-04-14 16:02 | 29.29511 | 90.88896 | 11879 ft | 14 kts | 100° |
| 2026-04-14 16:02 | 29.29511 | 90.89036 | 11879 ft | 20 kts | 88° |
| 2026-04-14 16:02 | 29.29521 | 90.89186 | 11879 ft | 7 kts | 37° |
| 2026-04-14 16:03 | 29.29535 | 90.89193 | 11879 ft | 3 kts | 20° |
| 2026-04-14 16:03 | 29.29580 | 90.89193 | 11879 ft | 9 kts | 3° |
| 2026-04-14 16:03 | 29.29664 | 90.89197 | 11879 ft | 15 kts | 2° |
| 2026-04-14 16:03 | 29.29767 | 90.89212 | 11879 ft | 11 kts | 51° |
| 2026-04-14 16:04 | 29.29776 | 90.89367 | 11879 ft | 45 kts | 90° |
| 2026-04-14 16:04 | 29.29791 | 90.90040 | 11878 ft | 120 kts | 88° |
| 2026-04-14 16:04 | 29.29804 | 90.91235 | 11877 ft | 176 kts | 89° |
| 2026-04-14 16:04 | 29.29855 | 90.92796 | 12061 ft | 204 kts | 88° |
| 2026-04-14 16:05 | 29.29962 | 90.94441 | 12610 ft | 208 kts | 86° |
| 2026-04-14 16:05 | 29.30100 | 90.96098 | 13317 ft | 210 kts | 86° |
| 2026-04-14 16:05 | 29.30202 | 90.97774 | 13859 ft | 218 kts | 88° |
| 2026-04-14 16:05 | 29.30247 | 90.99609 | 14042 ft | 239 kts | 89° |
| 2026-04-14 16:06 | 29.30359 | 91.01614 | 14068 ft | 264 kts | 78° |
| 2026-04-14 16:06 | 29.31002 | 91.03616 | 14051 ft | 263 kts | 60° |
| 2026-04-14 16:06 | 29.31746 | 91.05615 | 14042 ft | 288 kts | 77° |
| 2026-04-14 16:06 | 29.31962 | 91.08012 | 14060 ft | 315 kts | 93° |
| 2026-04-14 16:07 | 29.31561 | 91.10546 | 14042 ft | 323 kts | 107° |
| 2026-04-14 16:07 | 29.30976 | 91.13036 | 14036 ft | 321 kts | 103° |
| 2026-04-14 16:07 | 29.30566 | 91.15537 | 14039 ft | 320 kts | 99° |
| 2026-04-14 16:07 | 29.30293 | 91.18111 | 14035 ft | 331 kts | 95° |
| 2026-04-14 16:08 | 29.30084 | 91.20869 | 14033 ft | 362 kts | 95° |
| 2026-04-14 16:08 | 29.29855 | 91.23890 | 14028 ft | 380 kts | 94° |
| 2026-04-14 16:08 | 29.29626 | 91.26919 | 14023 ft | 380 kts | 94° |
| 2026-04-14 16:08 | 29.29397 | 91.29949 | 14025 ft | 374 kts | 94° |
| 2026-04-14 16:09 | 29.29173 | 91.32914 | 14031 ft | 370 kts | 95° |
| 2026-04-14 16:09 | 29.28949 | 91.35873 | 14036 ft | 368 kts | 95° |
| 2026-04-14 16:09 | 29.28727 | 91.38821 | 14041 ft | 368 kts | 95° |
| 2026-04-14 16:09 | 29.28505 | 91.41762 | 14043 ft | 368 kts | 94° |
| 2026-04-14 16:10 | 29.28283 | 91.44684 | 14046 ft | 369 kts | 94° |
| 2026-04-14 16:10 | 29.28062 | 91.47611 | 14047 ft | 370 kts | 94° |
| 2026-04-14 16:10 | 29.27834 | 91.50615 | 14047 ft | 370 kts | 94° |
| 2026-04-14 16:10 | 29.27590 | 91.53561 | 14043 ft | 371 kts | 94° |
| 2026-04-14 16:11 | 29.27335 | 91.56533 | 14039 ft | 371 kts | 95° |
| 2026-04-14 16:11 | 29.27080 | 91.59505 | 14035 ft | 371 kts | 95° |
| 2026-04-14 16:11 | 29.26826 | 91.62461 | 14036 ft | 370 kts | 95° |
| 2026-04-14 16:11 | 29.26572 | 91.65411 | 14036 ft | 369 kts | 95° |
| 2026-04-14 16:12 | 29.26324 | 91.68297 | 14031 ft | 368 kts | 95° |
| 2026-04-14 16:12 | 29.26071 | 91.71233 | 14035 ft | 368 kts | 95° |
| 2026-04-14 16:12 | 29.25818 | 91.74155 | 14032 ft | 369 kts | 95° |
| 2026-04-14 16:12 | 29.25587 | 91.77092 | 14279 ft | 361 kts | 92° |
| 2026-04-14 16:13 | 29.25572 | 91.79894 | 15268 ft | 353 kts | 87° |
| 2026-04-14 16:13 | 29.25804 | 91.82734 | 15799 ft | 370 kts | 81° |
| 2026-04-14 16:13 | 29.26361 | 91.85740 | 16012 ft | 389 kts | 74° |
| 2026-04-14 16:13 | 29.27257 | 91.88712 | 16416 ft | 400 kts | 69° |
| 2026-04-14 16:14 | 29.27916 | 91.91805 | 17256 ft | 403 kts | 87° |
| 2026-04-14 16:14 | 29.27524 | 91.94948 | 18101 ft | 403 kts | 109° |
| 2026-04-14 16:14 | 29.26267 | 91.97845 | 18777 ft | 407 kts | 121° |
| 2026-04-14 16:14 | 29.25023 | 92.00800 | 19525 ft | 410 kts | 109° |
| 2026-04-14 16:15 | 29.24011 | 92.03902 | 20204 ft | 415 kts | 118° |
| 2026-04-14 16:15 | 29.22182 | 92.06519 | 20845 ft | 418 kts | 141° |
| 2026-04-14 16:15 | 29.19634 | 92.08124 | 21444 ft | 419 kts | 164° |
| 2026-04-14 16:15 | 29.16741 | 92.08496 | 22034 ft | 417 kts | 187° |
| 2026-04-14 16:16 | 29.13954 | 92.07694 | 22596 ft | 416 kts | 204° |
| 2026-04-14 16:16 | 29.11360 | 92.06091 | 23197 ft | 414 kts | 218° |
| 2026-04-14 16:16 | 29.09226 | 92.03852 | 23785 ft | 412 kts | 232° |
| 2026-04-14 16:16 | 29.07661 | 92.01128 | 24340 ft | 411 kts | 245° |
| 2026-04-14 16:17 | 29.06702 | 91.97962 | 24765 ft | 415 kts | 259° |
| 2026-04-14 16:17 | 29.06486 | 91.94724 | 25290 ft | 415 kts | 273° |
| 2026-04-14 16:17 | 29.06959 | 91.91472 | 25896 ft | 415 kts | 284° |
| 2026-04-14 16:17 | 29.07760 | 91.88274 | 26398 ft | 418 kts | 286° |
| 2026-04-14 16:18 | 29.08574 | 91.85046 | 26816 ft | 423 kts | 286° |
| 2026-04-14 16:18 | 29.09391 | 91.81795 | 27361 ft | 425 kts | 285° |
| 2026-04-14 16:18 | 29.10221 | 91.78500 | 27844 ft | 428 kts | 287° |
| 2026-04-14 16:18 | 29.11059 | 91.75178 | 28163 ft | 433 kts | 287° |
| 2026-04-14 16:19 | 29.11892 | 91.71854 | 28665 ft | 434 kts | 286° |
| 2026-04-14 16:19 | 29.12722 | 91.68520 | 29204 ft | 434 kts | 285° |
| 2026-04-14 16:19 | 29.13546 | 91.65211 | 29664 ft | 435 kts | 286° |
| 2026-04-14 16:19 | 29.14383 | 91.61869 | 30068 ft | 436 kts | 286° |
| 2026-04-14 16:20 | 29.15227 | 91.58504 | 30356 ft | 440 kts | 286° |
| 2026-04-14 16:20 | 29.16067 | 91.55126 | 30764 ft | 439 kts | 285° |
| 2026-04-14 16:20 | 29.16900 | 91.51763 | 31322 ft | 435 kts | 285° |
| 2026-04-14 16:20 | 29.17718 | 91.48458 | 31906 ft | 431 kts | 286° |
| 2026-04-14 16:21 | 29.18538 | 91.45151 | 32467 ft | 426 kts | 287° |
| 2026-04-14 16:21 | 29.19348 | 91.41896 | 33017 ft | 422 kts | 286° |
| 2026-04-14 16:21 | 29.20149 | 91.38672 | 33497 ft | 420 kts | 286° |
| 2026-04-14 16:21 | 29.20942 | 91.35461 | 33709 ft | 421 kts | 286° |
| 2026-04-14 16:22 | 29.21743 | 91.32206 | 33815 ft | 416 kts | 285° |
| 2026-04-14 16:22 | 29.22525 | 91.29022 | 34257 ft | 410 kts | 285° |
| 2026-04-14 16:22 | 29.23295 | 91.25885 | 34621 ft | 410 kts | 285° |
| 2026-04-14 16:23 | 29.24866 | 91.19502 | 34617 ft | 423 kts | 285° |
| 2026-04-14 16:23 | 29.26484 | 91.12912 | 34656 ft | 434 kts | 285° |
| 2026-04-14 16:24 | 29.28125 | 91.06203 | 34644 ft | 440 kts | 285° |
| 2026-04-14 16:24 | 29.29619 | 90.99496 | 34654 ft | 443 kts | 279° |
| 2026-04-14 16:25 | 29.29988 | 90.92411 | 34662 ft | 444 kts | 272° |
| 2026-04-14 16:25 | 29.30271 | 90.85371 | 34687 ft | 442 kts | 273° |
| 2026-04-14 16:26 | 29.30539 | 90.78290 | 34704 ft | 441 kts | 273° |
| 2026-04-14 16:26 | 29.30806 | 90.71227 | 34684 ft | 441 kts | 274° |
| 2026-04-14 16:27 | 29.31073 | 90.64221 | 34735 ft | 440 kts | 273° |
| 2026-04-14 16:27 | 29.31330 | 90.57178 | 34732 ft | 439 kts | 274° |
| 2026-04-14 16:28 | 29.31589 | 90.50198 | 34743 ft | 431 kts | 273° |
| 2026-04-14 16:28 | 29.31711 | 90.46798 | 34737 ft | 411 kts | 274° |
| 2026-04-14 16:28 | 29.31826 | 90.43536 | 34745 ft | 399 kts | 274° |
| 2026-04-14 16:29 | 29.32057 | 90.37096 | 34730 ft | 412 kts | 273° |
| 2026-04-14 16:29 | 29.32297 | 90.30456 | 34784 ft | 422 kts | 273° |
| 2026-04-14 16:30 | 29.32535 | 90.23647 | 34757 ft | 432 kts | 273° |
| 2026-04-14 16:30 | 29.32773 | 90.16683 | 34785 ft | 435 kts | 273° |
| 2026-04-14 16:31 | 29.33008 | 90.09705 | 34767 ft | 436 kts | 273° |
| 2026-04-14 16:31 | 29.33238 | 90.02773 | 34771 ft | 434 kts | 273° |
| 2026-04-14 16:32 | 29.33462 | 89.95873 | 34784 ft | 433 kts | 273° |
| 2026-04-14 16:32 | 29.33685 | 89.88933 | 34777 ft | 432 kts | 272° |
| 2026-04-14 16:33 | 29.33903 | 89.82057 | 34780 ft | 432 kts | 272° |
| 2026-04-14 16:33 | 29.34117 | 89.75173 | 34791 ft | 432 kts | 273° |
| 2026-04-14 16:34 | 29.34329 | 89.68268 | 34743 ft | 432 kts | 273° |
| 2026-04-14 16:34 | 29.34534 | 89.61451 | 34759 ft | 431 kts | 273° |
| 2026-04-14 16:35 | 29.34740 | 89.54512 | 34740 ft | 431 kts | 273° |
| 2026-04-14 16:35 | 29.34941 | 89.47621 | 34751 ft | 430 kts | 272° |
| 2026-04-14 16:36 | 29.35138 | 89.40723 | 34732 ft | 431 kts | 273° |
| 2026-04-14 16:36 | 29.34929 | 89.33866 | 34747 ft | 433 kts | 263° |
| 2026-04-14 16:37 | 29.33328 | 89.27150 | 34724 ft | 439 kts | 251° |
| 2026-04-14 16:37 | 29.30288 | 89.20976 | 34699 ft | 446 kts | 238° |
| 2026-04-14 16:38 | 29.26123 | 89.15583 | 34682 ft | 450 kts | 233° |
| 2026-04-14 16:38 | 29.21865 | 89.10338 | 34642 ft | 450 kts | 233° |
| 2026-04-14 16:39 | 29.17580 | 89.05067 | 34651 ft | 449 kts | 233° |
| 2026-04-14 16:39 | 29.13291 | 88.99799 | 34663 ft | 449 kts | 232° |
| 2026-04-14 16:40 | 29.09012 | 88.94548 | 34672 ft | 448 kts | 233° |
| 2026-04-14 16:40 | 29.04746 | 88.89320 | 34655 ft | 449 kts | 233° |
| 2026-04-14 16:41 | 29.00454 | 88.84069 | 34653 ft | 449 kts | 233° |
| 2026-04-14 16:41 | 28.96167 | 88.78828 | 34647 ft | 450 kts | 233° |
| 2026-04-14 16:42 | 28.91904 | 88.73627 | 34660 ft | 449 kts | 233° |
| 2026-04-14 16:42 | 28.87613 | 88.68397 | 34661 ft | 450 kts | 233° |
| 2026-04-14 16:43 | 28.83389 | 88.63253 | 34748 ft | 450 kts | 233° |
| 2026-04-14 16:43 | 28.79092 | 88.58025 | 34746 ft | 450 kts | 233° |
| 2026-04-14 16:44 | 28.74796 | 88.52810 | 34748 ft | 451 kts | 233° |
| 2026-04-14 16:44 | 28.70496 | 88.47597 | 34742 ft | 450 kts | 233° |
| 2026-04-14 16:45 | 28.64057 | 88.39803 | 34759 ft | 449 kts | 233° |
| 2026-04-14 16:45 | 28.59768 | 88.34618 | 34781 ft | 449 kts | 233° |
| 2026-04-14 16:46 | 28.55547 | 88.29524 | 34819 ft | 450 kts | 233° |
| 2026-04-14 16:46 | 28.51229 | 88.24318 | 34833 ft | 449 kts | 233° |
| 2026-04-14 16:47 | 28.46923 | 88.19132 | 34801 ft | 450 kts | 233° |
| 2026-04-14 16:47 | 28.42607 | 88.13943 | 34803 ft | 450 kts | 233° |
| 2026-04-14 16:48 | 28.38281 | 88.08748 | 34851 ft | 449 kts | 233° |
| 2026-04-14 16:48 | 28.34022 | 88.03642 | 34884 ft | 449 kts | 233° |
| 2026-04-14 16:49 | 28.29709 | 87.98476 | 34881 ft | 449 kts | 233° |
| 2026-04-14 16:49 | 28.25411 | 87.93337 | 34895 ft | 449 kts | 233° |
| 2026-04-14 16:50 | 28.21090 | 87.88177 | 34957 ft | 448 kts | 233° |
| 2026-04-14 16:50 | 28.16758 | 87.83008 | 34931 ft | 449 kts | 233° |
| 2026-04-14 16:51 | 28.12436 | 87.77859 | 34936 ft | 447 kts | 233° |
| 2026-04-14 16:51 | 28.08096 | 87.72696 | 34953 ft | 447 kts | 233° |
| 2026-04-14 16:52 | 28.03794 | 87.67583 | 34951 ft | 447 kts | 233° |
| 2026-04-14 16:52 | 27.99489 | 87.62472 | 34957 ft | 447 kts | 233° |
| 2026-04-14 16:53 | 27.95252 | 87.57449 | 34995 ft | 446 kts | 233° |
| 2026-04-14 16:53 | 27.90938 | 87.52340 | 34909 ft | 447 kts | 233° |
| 2026-04-14 16:54 | 27.86634 | 87.47289 | 34934 ft | 447 kts | 231° |
| 2026-04-14 16:54 | 27.81739 | 87.42989 | 34903 ft | 461 kts | 219° |
| 2026-04-14 16:55 | 27.75843 | 87.39861 | 34913 ft | 471 kts | 211° |
| 2026-04-14 16:55 | 27.69688 | 87.37026 | 34771 ft | 474 kts | 211° |
| 2026-04-14 16:56 | 27.63613 | 87.34229 | 34810 ft | 471 kts | 210° |
| 2026-04-14 16:56 | 27.57497 | 87.31415 | 34701 ft | 473 kts | 210° |
| 2026-04-14 16:57 | 27.51374 | 87.28601 | 34661 ft | 473 kts | 210° |
| 2026-04-14 16:57 | 27.48280 | 87.27189 | 34526 ft | 474 kts | 210° |
| 2026-04-14 16:57 | 27.45228 | 87.25824 | 34486 ft | 468 kts | 210° |
| 2026-04-14 16:58 | 27.39253 | 87.23160 | 34426 ft | 455 kts | 210° |
| 2026-04-14 16:58 | 27.33342 | 87.20542 | 34288 ft | 453 kts | 210° |
| 2026-04-14 16:59 | 27.27493 | 87.17947 | 34152 ft | 453 kts | 210° |
| 2026-04-14 16:59 | 27.21242 | 87.16263 | 34128 ft | 471 kts | 192° |
| 2026-04-14 17:00 | 27.17910 | 87.16279 | 34181 ft | 482 kts | 183° |
| 2026-04-14 17:00 | 27.14562 | 87.16876 | 34113 ft | 494 kts | 174° |
| 2026-04-14 17:00 | 27.07940 | 87.19401 | 34075 ft | 507 kts | 161° |
| 2026-04-14 17:01 | 27.02021 | 87.23852 | 34074 ft | 523 kts | 142° |
| 2026-04-14 17:01 | 26.97326 | 87.30208 | 34014 ft | 533 kts | 123° |
| 2026-04-14 17:02 | 26.95656 | 87.33910 | 34018 ft | 536 kts | 111° |
| 2026-04-14 17:02 | 26.94825 | 87.38002 | 34037 ft | 535 kts | 93° |
| 2026-04-14 17:02 | 26.94530 | 87.46352 | 33999 ft | 537 kts | 90° |
| 2026-04-14 17:03 | 26.93928 | 87.54701 | 34035 ft | 538 kts | 104° |
| 2026-04-14 17:03 | 26.91791 | 87.62759 | 34003 ft | 539 kts | 107° |
| 2026-04-14 17:04 | 26.89631 | 87.70805 | 34037 ft | 539 kts | 107° |
| 2026-04-14 17:04 | 26.87444 | 87.78934 | 34050 ft | 539 kts | 107° |
| 2026-04-14 17:05 | 26.85281 | 87.86954 | 34036 ft | 540 kts | 107° |
| 2026-04-14 17:05 | 26.83095 | 87.95040 | 34059 ft | 540 kts | 107° |
| 2026-04-14 17:06 | 26.80898 | 88.03148 | 34015 ft | 541 kts | 107° |
| 2026-04-14 17:06 | 26.78715 | 88.11184 | 33988 ft | 541 kts | 107° |
| 2026-04-14 17:07 | 26.76607 | 88.19293 | 33917 ft | 541 kts | 103° |
| 2026-04-14 17:07 | 26.75562 | 88.27608 | 33919 ft | 538 kts | 91° |
| 2026-04-14 17:08 | 26.75755 | 88.35937 | 33896 ft | 535 kts | 81° |
| 2026-04-14 17:08 | 26.77155 | 88.44068 | 33885 ft | 522 kts | 70° |
| 2026-04-14 17:09 | 26.78238 | 88.47889 | 33450 ft | 512 kts | 65° |
| 2026-04-14 17:09 | 26.79573 | 88.51554 | 32726 ft | 507 kts | 60° |
| 2026-04-14 17:09 | 26.81171 | 88.55067 | 31973 ft | 501 kts | 54° |
| 2026-04-14 17:09 | 26.82970 | 88.58433 | 31268 ft | 496 kts | 52° |
| 2026-04-14 17:10 | 26.84765 | 88.61723 | 30674 ft | 491 kts | 52° |
| 2026-04-14 17:10 | 26.86531 | 88.64970 | 30070 ft | 487 kts | 52° |
| 2026-04-14 17:10 | 26.88300 | 88.68218 | 29271 ft | 486 kts | 53° |
| 2026-04-14 17:10 | 26.90047 | 88.71433 | 28983 ft | 473 kts | 53° |
| 2026-04-14 17:11 | 26.91702 | 88.74489 | 28956 ft | 455 kts | 52° |
| 2026-04-14 17:11 | 26.93304 | 88.77447 | 28965 ft | 438 kts | 52° |
| 2026-04-14 17:11 | 26.96419 | 88.83183 | 29011 ft | 430 kts | 52° |
| 2026-04-14 17:12 | 26.97811 | 88.86199 | 28987 ft | 440 kts | 64° |
| 2026-04-14 17:12 | 26.98546 | 88.89579 | 29005 ft | 448 kts | 79° |
| 2026-04-14 17:12 | 26.99265 | 88.96463 | 28847 ft | 438 kts | 80° |
| 2026-04-14 17:13 | 26.99615 | 88.99806 | 28388 ft | 436 kts | 79° |
| 2026-04-14 17:13 | 26.99972 | 89.03217 | 27835 ft | 436 kts | 80° |
| 2026-04-14 17:13 | 27.00324 | 89.06578 | 27382 ft | 432 kts | 80° |
| 2026-04-14 17:13 | 27.00668 | 89.09887 | 26975 ft | 428 kts | 80° |
| 2026-04-14 17:14 | 27.01016 | 89.13223 | 26544 ft | 424 kts | 81° |
| 2026-04-14 17:14 | 27.01356 | 89.16496 | 26131 ft | 420 kts | 81° |
| 2026-04-14 17:14 | 27.01693 | 89.19759 | 25731 ft | 416 kts | 80° |
| 2026-04-14 17:14 | 27.02022 | 89.22937 | 25339 ft | 411 kts | 81° |
| 2026-04-14 17:15 | 27.02349 | 89.26105 | 24965 ft | 406 kts | 81° |
| 2026-04-14 17:15 | 27.02669 | 89.29207 | 24630 ft | 399 kts | 81° |
| 2026-04-14 17:15 | 27.02988 | 89.32313 | 24052 ft | 393 kts | 81° |
| 2026-04-14 17:15 | 27.03298 | 89.35335 | 23458 ft | 388 kts | 81° |
| 2026-04-14 17:16 | 27.03599 | 89.38263 | 22899 ft | 382 kts | 81° |
| 2026-04-14 17:16 | 27.03904 | 89.41245 | 22309 ft | 377 kts | 81° |
| 2026-04-14 17:16 | 27.04303 | 89.44137 | 21696 ft | 371 kts | 72° |
| 2026-04-14 17:16 | 27.05312 | 89.46757 | 21045 ft | 362 kts | 53° |
| 2026-04-14 17:17 | 27.06918 | 89.48868 | 20384 ft | 353 kts | 36° |
| 2026-04-14 17:17 | 27.08984 | 89.50356 | 19704 ft | 343 kts | 19° |
| 2026-04-14 17:17 | 27.11240 | 89.51105 | 19098 ft | 331 kts | 4° |
| 2026-04-14 17:17 | 27.13506 | 89.51209 | 18480 ft | 324 kts | 354° |
| 2026-04-14 17:18 | 27.15744 | 89.51112 | 17839 ft | 322 kts | 354° |
| 2026-04-14 17:18 | 27.17996 | 89.51019 | 17219 ft | 320 kts | 354° |
| 2026-04-14 17:18 | 27.20249 | 89.50928 | 16619 ft | 317 kts | 354° |
| 2026-04-14 17:18 | 27.22481 | 89.50836 | 16046 ft | 313 kts | 354° |
| 2026-04-14 17:19 | 27.24609 | 89.50751 | 15369 ft | 299 kts | 354° |
| 2026-04-14 17:19 | 27.26618 | 89.50672 | 14949 ft | 273 kts | 353° |
| 2026-04-14 17:19 | 27.28441 | 89.50603 | 14505 ft | 251 kts | 353° |
| 2026-04-14 17:19 | 27.30163 | 89.50532 | 13656 ft | 248 kts | 353° |
| 2026-04-14 17:20 | 27.31829 | 89.50467 | 13140 ft | 230 kts | 353° |
| 2026-04-14 17:20 | 27.33297 | 89.50139 | 12777 ft | 204 kts | 329° |
| 2026-04-14 17:20 | 27.34446 | 89.49313 | 12231 ft | 183 kts | 321° |
| 2026-04-14 17:20 | 27.35365 | 89.48498 | 12013 ft | 150 kts | 314° |
| 2026-04-14 17:21 | 27.36069 | 89.47779 | 11910 ft | 152 kts | 314° |
| 2026-04-14 17:21 | 27.36842 | 89.46970 | 11992 ft | 134 kts | 312° |
| 2026-04-14 17:21 | 27.37508 | 89.46181 | 11598 ft | 154 kts | 308° |
| 2026-04-14 17:21 | 27.38167 | 89.45240 | 11958 ft | 148 kts | 306° |
| 2026-04-14 17:22 | 27.38939 | 89.44334 | 12073 ft | 170 kts | 312° |
| 2026-04-14 17:22 | 27.39803 | 89.43397 | 11943 ft | 172 kts | 313° |
| 2026-04-14 17:22 | 27.40656 | 89.42444 | 11747 ft | 168 kts | 307° |
| 2026-04-14 17:22 | 27.41347 | 89.41473 | 11520 ft | 152 kts | 303° |
| 2026-04-14 17:23 | 27.41984 | 89.40543 | 11252 ft | 144 kts | 304° |
| 2026-04-14 17:23 | 27.42585 | 89.39655 | 10995 ft | 141 kts | 304° |
| 2026-04-14 17:23 | 27.43180 | 89.38759 | 10745 ft | 140 kts | 304° |
| 2026-04-14 17:23 | 27.43665 | 89.37812 | 10503 ft | 138 kts | 289° |
| 2026-04-14 17:24 | 27.43961 | 89.36791 | 10279 ft | 137 kts | 286° |
| 2026-04-14 17:24 | 27.44566 | 89.35976 | 10020 ft | 143 kts | 336° |
| 2026-04-14 17:24 | 27.45533 | 89.36066 | 9704 ft | 147 kts | 32° |
| 2026-04-14 17:24 | 27.46068 | 89.36956 | 9441 ft | 151 kts | 83° |
| 2026-04-14 17:25 | 27.46030 | 89.38148 | 9283 ft | 155 kts | 109° |
| 2026-04-14 17:25 | 27.45784 | 89.38647 | 9164 ft | 0 kts | 173° |
| 2026-04-14 17:25 | 27.45784 | 89.38646 | 9163 ft | 0 kts | 172° |
| 2026-04-14 17:25 | 27.45784 | 89.38645 | 9161 ft | 0 kts | 172° |
| 2026-04-14 17:26 | 27.45784 | 89.38644 | 9159 ft | 0 kts | 171° |
| 2026-04-14 17:26 | 27.45784 | 89.38643 | 9158 ft | 0 kts | 171° |
| 2026-04-14 17:26 | 27.45784 | 89.38642 | 9156 ft | 0 kts | 170° |
| 2026-04-14 17:26 | 27.45784 | 89.38641 | 9154 ft | 0 kts | 169° |
| 2026-04-14 17:27 | 27.45784 | 89.38640 | 9151 ft | 0 kts | 168° |
| 2026-04-14 17:27 | 27.45784 | 89.38638 | 9149 ft | 0 kts | 167° |
| 2026-04-14 17:28 | 27.45784 | 89.38637 | 9146 ft | 0 kts | 166° |
| 2026-04-14 17:28 | 27.45784 | 89.38636 | 9144 ft | 0 kts | 165° |
| 2026-04-14 17:28 | 27.45784 | 89.38635 | 9142 ft | 0 kts | 165° |
| 2026-04-14 17:29 | 27.45784 | 89.38633 | 9139 ft | 0 kts | 163° |
| 2026-04-14 17:29 | 27.45784 | 89.38632 | 9138 ft | 0 kts | 163° |
| 2026-04-14 17:29 | 27.45784 | 89.38631 | 9136 ft | 0 kts | 162° |
| 2026-04-14 17:30 | 27.45784 | 89.38630 | 9133 ft | 0 kts | 161° |
| 2026-04-14 17:30 | 27.45784 | 89.38629 | 9132 ft | 0 kts | 161° |
| 2026-04-14 17:30 | 27.45784 | 89.38628 | 9130 ft | 0 kts | 160° |
| 2026-04-14 17:30 | 27.45784 | 89.38627 | 9127 ft | 0 kts | 160° |
| 2026-04-14 17:31 | 27.45784 | 89.38626 | 9125 ft | 0 kts | 159° |
| 2026-04-14 17:31 | 27.45784 | 89.38625 | 9123 ft | 0 kts | 158° |
| 2026-04-14 17:31 | 27.45784 | 89.38623 | 9119 ft | 0 kts | 157° |
| 2026-04-14 17:32 | 27.45783 | 89.38622 | 9117 ft | 0 kts | 156° |